aviador You're here:

KRIW Decoded Metar

RIVERTON in WY, USA
Report Time2017-04-29 16:53:00
UTC Time2017-04-29 17:45:21
Flight Rules vfr VFR
Wind150° at 07 kt
W.Decomp.*RWY 10: 5.4 kt HW 4.4 kt RCW
RWY 19: 4.4 kt HW 5.4 kt LCW
W.Rank150° ranks 35
Current wind is above 150° avg. (5.8)
Visibility9999 m
Phenomena:N/A
Clouds:Few 008 Hf
Expected CloudBase > 800 ft AGL from Temp-Dew spread
CeilingNone
Temp00°C (ISA -4)
Dew Point-2°C (87% RH)
AAT-4.8°C
QNH1026 hPa
Density Alt4,741 ft
Elevation5,568 ft
Report Wrong Elevation
Raw Report
KRIW 291653Z AUTO 15007KT 10SM FEW008 00/M02 A3029=

Extra information for KRIW:More info

Metar Taf Metar & Taf Last 4 Metars F.Rules Stats Wind Profile Meteogram Temp Stats Airport Information Weather charts Add Link Nearby VenuesMetar ALERT Operation Metar Decoded Social comments

AIRNAV info for KRIW